Latest Weather Observations for Double Island Point

IDQ60901

Issued at 8:51 am EST Wednesday 20 February 2019 (issued every 10 minutes, with the page automatically refreshed every 10 minutes)

About weather observations | Map of Brisbane area stations | Latest observations for Brisbane area | Other Formats
Station Details ID: 040068 Name: DOUBLE ISLAND POINT LIGHTHOUSE Lat: -25.93 Lon: 153.19 Height: 95.64 m
Data from the previous 72 hours. | See also: Recent months at Double Island Point
Date/Time
EST
Temp
°C
App
Temp
°C
Dew
Point
°C
Rel
Hum
%
Delta-T
°C
Wind Press
QNH
hPa
Press
MSL
hPa
Rain since
9am
mm
Dir  Spd
km/h
Gust
km/h
Spd
kts
Gust
kts
20/08:30am 27.1 25.1 21.8 73 3.6 SSE 35 39 19 21 1008.2 1007.7 0.0
20/08:00am 26.1 24.6 22.0 78 2.8 SSE 33 39 18 21 1008.2 1007.7 0.0
20/07:30am 26.3 24.5 22.2 78 2.8 SSE 35 41 19 22 1007.9 1007.4 0.0
20/07:00am 25.9 23.9 21.8 78 2.7 SE 35 41 19 22 1007.7 1007.2 0.0
20/06:30am 25.0 22.5 21.7 82 2.2 SSE 37 44 20 24 1007.2 1006.7 0.0
20/06:00am 24.9 22.5 21.8 83 2.1 SSE 37 44 20 24 1006.9 1006.4 0.0
20/05:30am 24.7 22.8 22.0 85 1.8 SSE 35 41 19 22 1006.4 1005.8 0.0
20/05:00am 24.7 23.2 22.0 85 1.8 SSE 33 37 18 20 1006.2 1005.6 0.0
20/04:30am 24.5 24.6 21.8 85 1.8 SE 24 28 13 15 1005.9 1005.3 0.0
20/04:00am 24.6 24.3 21.9 85 1.8 SE 26 30 14 16 1005.8 1005.2 0.0
20/03:30am 24.5 24.2 21.8 85 1.8 SE 26 30 14 16 1005.7 1005.1 0.0
20/03:00am 24.5 25.0 22.0 86 1.7 SE 22 26 12 14 1005.8 1005.2 0.0
20/02:30am 24.5 24.9 21.8 85 1.8 SE 22 26 12 14 1006.0 1005.4 0.0
20/02:00am 24.4 25.2 21.7 85 1.8 SE 20 26 11 14 1006.1 1005.5 0.0
20/01:30am 24.4 25.7 21.7 85 1.8 SE 17 20 9 11 1006.4 1005.8 0.0
20/01:00am 24.4 25.4 21.7 85 1.8 SE 19 20 10 11 1006.5 1005.9 0.0
20/12:30am 24.4 25.7 21.7 85 1.8 ESE 17 20 9 11 1007.0 1006.5 0.0
20/12:00am 24.5 26.4 22.0 86 1.7 SE 15 20 8 11 1007.4 1006.9 0.0
 
Date/Time
EST
Temp
°C
App
Temp
°C
Dew
Point
°C
Rel
Hum
%
Delta-T
°C
Wind Press
QNH
hPa
Press
MSL
hPa
Rain since
9am
mm
Dir  Spd
km/h
Gust
km/h
Spd
kts
Gust
kts
19/11:30pm 24.5 25.9 21.8 85 1.8 ESE 17 20 9 11 1007.6 1007.1 0.0
19/11:00pm 24.6 26.0 21.9 85 1.8 ESE 17 20 9 11 1007.9 1007.4 0.0
19/10:30pm 24.7 25.5 21.8 84 1.9 ESE 20 22 11 12 1008.0 1007.5 0.0
19/10:00pm 24.7 25.5 21.8 84 1.9 ESE 20 24 11 13 1008.0 1007.5 0.0
19/09:30pm 24.9 25.6 22.2 85 1.8 ESE 22 28 12 15 1007.9 1007.4 0.0
19/09:00pm 24.8 25.3 21.9 84 1.9 ESE 22 26 12 14 1007.8 1007.3 0.0
19/08:30pm 24.9 25.1 22.0 84 1.9 ESE 24 28 13 15 1007.7 1007.2 0.0
19/08:00pm 25.0 25.2 22.1 84 1.9 ESE 24 30 13 16 1007.4 1006.9 0.0
19/07:30pm 25.0 24.6 21.7 82 2.2 ESE 26 32 14 17 1007.1 1006.6 0.0
19/07:00pm 25.1 25.2 21.8 82 2.2 ESE 24 28 13 15 1006.9 1006.4 0.0
19/06:30pm 25.2 24.7 21.5 80 2.5 ESE 26 30 14 16 1006.7 1006.2 0.0
19/06:00pm 25.5 24.6 21.4 78 2.7 ESE 28 33 15 18 1006.5 1005.9 0.0
19/05:30pm 25.8 25.3 21.5 77 2.9 ESE 26 30 14 16 1006.3 1005.7 0.0
19/05:00pm 26.1 25.2 21.5 76 3.1 ESE 28 32 15 17 1005.9 1005.3 0.0
19/04:30pm 26.4 25.5 21.4 74 3.3 ESE 28 32 15 17 1005.7 1005.1 0.0
19/04:00pm 26.5 26.0 21.5 74 3.3 ESE 26 32 14 17 1005.6 1005.0 0.0
19/03:30pm 26.7 25.6 21.0 71 3.8 ESE 28 32 15 17 1005.7 1005.1 0.0
19/03:00pm 27.4 27.1 21.9 72 3.7 SE 26 30 14 16 1005.8 1005.2 0.0
19/02:30pm 27.8 27.8 21.6 69 4.2 SE 24 28 13 15 1006.1 1005.5 0.0
19/02:00pm 27.7 27.9 22.0 71 3.9 SE 24 28 13 15 1006.4 1005.8 0.0
19/01:30pm 27.9 28.2 22.2 71 3.9 SSE 24 28 13 15 1006.7 1006.2 0.0
19/01:00pm 27.2 27.3 21.9 73 3.6 SSE 24 32 13 17 1007.1 1006.6 0.0
19/12:30pm 27.7 28.0 22.2 72 3.7 SSE 24 30 13 16 1007.4 1006.9 0.0
19/12:00pm 27.3 27.5 22.0 73 3.6 SSE 24 30 13 16 1007.9 1007.4 0.0
19/11:30am 27.6 27.9 22.3 73 3.6 SSE 24 30 13 16 1008.3 1007.8 0.0
19/11:00am 26.9 27.0 21.9 74 3.4 SSE 24 30 13 16 1008.8 1008.3 0.0
19/10:30am 26.8 27.1 22.2 76 3.1 S 24 30 13 16 1008.9 1008.4 0.0
19/10:00am 26.9 27.2 22.9 79 2.7 SSE 26 32 14 17 1009.1 1008.6 0.0
19/09:30am 25.7 25.5 22.0 80 2.5 S 26 32 14 17 1009.0 1008.5 0.0
19/09:00am 26.4 26.6 22.0 77 3.0 SSE 24 32 13 17 1009.0 1008.5 0.0
19/08:30am 25.1 24.9 22.0 83 2.1 SSE 26 32 14 17 1009.0 1008.5 0.0
19/08:00am 26.0 26.4 21.7 77 2.9 SSE 22 28 12 15 1009.0 1008.5 0.0
19/07:30am 25.4 25.6 22.1 82 2.2 SSE 24 28 13 15 1008.9 1008.4 0.0
19/07:00am 25.6 25.5 21.5 78 2.7 SSE 24 28 13 15 1008.7 1008.2 0.0
19/06:30am 24.9 25.0 21.8 83 2.1 SE 24 28 13 15 1008.5 1008.0 0.0
19/06:00am 24.8 24.9 21.9 84 1.9 SE 24 30 13 16 1008.3 1007.8 0.0
19/05:30am 24.5 23.7 21.6 84 1.9 SSE 28 32 15 17 1008.0 1007.5 0.0
19/05:00am 24.5 23.7 21.6 84 1.9 SSE 28 35 15 19 1007.8 1007.3 0.0
19/04:30am 24.6 23.8 21.7 84 1.9 SE 28 33 15 18 1007.8 1007.3 0.0
19/04:00am 24.4 24.0 21.7 85 1.8 SSE 26 32 14 17 1008.0 1007.5 0.0
19/03:30am 24.5 23.8 21.8 85 1.8 SE 28 32 15 17 1008.0 1007.5 0.0
19/03:00am 24.3 23.5 21.6 85 1.8 SSE 28 30 15 16 1008.0 1007.5 0.0
19/02:30am 24.2 23.2 21.3 84 1.9 SSE 28 32 15 17 1008.2 1007.7 0.0
19/02:00am 24.5 23.7 21.6 84 1.9 SE 28 32 15 17 1008.4 1007.9 0.0
19/01:30am 24.4 23.4 21.3 83 2.1 SE 28 33 15 18 1008.5 1008.0 0.0
19/01:00am 24.5 23.8 21.0 81 2.3 SE 26 30 14 16 1008.9 1008.4 0.0
19/12:30am 24.8 24.1 21.1 80 2.4 SE 26 32 14 17 1009.2 1008.7 0.0
19/12:00am 24.6 23.2 20.5 78 2.7 SSE 28 32 15 17 1009.6 1009.1 0.0
 
Date/Time
EST
Temp
°C
App
Temp
°C
Dew
Point
°C
Rel
Hum
%
Delta-T
°C
Wind Press
QNH
hPa
Press
MSL
hPa
Rain since
9am
mm
Dir  Spd
km/h
Gust
km/h
Spd
kts
Gust
kts
18/11:30pm 24.5 23.4 20.2 77 2.8 SSE 26 32 14 17 1010.1 1009.6 0.0
18/11:00pm 24.6 22.9 19.9 75 3.1 SE 28 32 15 17 1010.4 1009.9 0.0
18/10:30pm 24.6 22.5 19.0 71 3.6 SE 28 33 15 18 1010.6 1010.1 0.0
18/10:00pm 24.7 21.5 18.2 67 4.1 SE 32 37 17 20 1010.7 1010.2 0.0
18/09:30pm 24.7 21.5 18.6 69 3.9 SE 33 39 18 21 1010.7 1010.2 0.0
18/09:00pm 24.8 20.7 18.3 67 4.1 SE 37 41 20 22 1010.5 1010.0 0.0
18/08:30pm 24.8 21.4 19.0 70 3.7 SE 35 41 19 22 1010.4 1009.9 0.0
18/08:00pm 24.8 21.3 18.7 69 3.9 SE 35 41 19 22 1010.3 1009.8 0.0
18/07:30pm 24.8 21.6 18.7 69 3.9 SE 33 41 18 22 1010.0 1009.5 0.0
18/07:00pm 25.0 20.9 18.2 66 4.3 SE 37 44 20 24 1009.6 1009.1 0.0
18/06:30pm 25.1 21.3 19.0 69 3.9 SE 37 43 20 23 1009.3 1008.8 0.0
18/06:00pm 25.3 21.3 18.5 66 4.3 SE 37 43 20 23 1009.2 1008.7 0.0
18/05:30pm 25.5 21.7 18.9 67 4.2 SE 37 44 20 24 1008.9 1008.4 0.0
18/05:00pm 25.7 22.1 18.6 65 4.5 SE 35 41 19 22 1008.7 1008.2 0.0
18/04:30pm 26.1 22.6 18.8 64 4.7 SSE 35 41 19 22 1008.6 1008.1 0.0
18/04:00pm 26.3 23.2 18.9 63 4.8 SSE 33 39 18 21 1008.7 1008.2 0.0
18/03:30pm 26.8 23.5 19.2 63 4.9 SSE 35 43 19 23 1008.6 1008.1 0.0
18/03:00pm 27.1 23.0 19.2 62 5.1 SSE 39 48 21 26 1008.7 1008.2 0.0
18/02:30pm 27.1 22.9 18.1 58 5.7 SSE 37 43 20 23 1008.9 1008.4 0.0
18/02:00pm 27.1 22.8 18.7 60 5.4 SE 39 44 21 24 1009.4 1008.9 0.0
18/01:30pm 27.4 24.0 18.9 59 5.5 SSE 35 44 19 24 1009.8 1009.3 0.0
18/01:00pm 26.8 23.0 18.9 62 5.1 SSE 37 44 20 24 1010.2 1009.7 0.0
18/12:30pm 27.1 23.8 19.2 62 5.1 SSE 35 41 19 22 1010.3 1009.8 0.0
18/12:00pm 27.2 22.9 17.9 56 5.9 SSE 37 46 20 25 1010.6 1010.1 0.0
18/11:30am 27.6 23.6 17.7 54 6.3 SSE 35 44 19 24 1010.7 1010.2 0.0
18/11:00am 27.5 23.5 17.7 55 6.2 SSE 35 44 19 24 1010.9 1010.4 0.0
18/10:30am 27.1 23.2 18.7 60 5.4 SSE 37 43 20 23 1011.2 1010.7 0.0
18/10:00am 27.1 22.4 17.8 56 5.9 SSE 39 43 21 23 1011.4 1010.9 0.0
18/09:30am 26.7 22.4 18.6 61 5.2 SSE 39 44 21 24 1011.4 1010.9 0.0
18/09:00am 26.7 22.5 18.0 59 5.5 SE 37 43 20 23 1011.4 1010.9 0.0
18/08:30am 26.6 22.1 18.2 60 5.3 SE 39 43 21 23 1011.2 1010.7 0.0
18/08:00am 26.3 22.1 17.1 57 5.8 SE 35 43 19 23 1011.2 1010.7 0.0
18/07:30am 25.9 21.6 17.0 58 5.5 SE 35 41 19 22 1010.8 1010.3 0.0
18/07:00am 25.6 21.1 16.5 57 5.6 SE 35 41 19 22 1010.7 1010.2 0.0
18/06:30am 25.3 20.3 17.0 60 5.2 SE 39 43 21 23 1010.8 1010.3 0.0
18/06:00am 24.9 19.3 16.6 60 5.1 SE 41 46 22 25 1010.3 1009.8 0.0
18/05:30am 24.7 19.6 16.9 62 4.8 SE 39 46 21 25 1010.3 1009.8 0.0
18/05:00am 24.7 19.8 17.2 63 4.7 SE 39 48 21 26 1010.0 1009.5 0.0
18/04:30am 24.5 20.3 18.9 71 3.6 SE 39 44 21 24 1009.7 1009.2 0.0
18/04:00am 24.5 21.8 19.6 74 3.2 SSE 33 39 18 21 1009.7 1009.2 0.0
18/03:30am 24.2 20.2 18.4 70 3.7 SSE 37 43 20 23 1009.6 1009.1 0.0
18/03:00am 24.2 20.5 18.4 70 3.7 SSE 35 41 19 22 1009.8 1009.3 0.0
18/02:30am 24.2 20.2 18.4 70 3.7 SSE 37 43 20 23 1009.8 1009.3 0.0
18/02:00am 24.2 19.7 18.2 69 3.8 SE 39 44 21 24 1010.0 1009.5 0.0
18/01:30am 24.3 20.8 18.7 71 3.6 SE 35 43 19 23 1010.5 1010.0 0.0
18/01:00am 24.4 20.3 18.3 69 3.9 SE 37 46 20 25 1010.8 1010.3 0.0
18/12:30am 24.4 20.2 18.1 68 4.0 SE 37 44 20 24 1011.2 1010.7 0.0
18/12:00am 24.4 20.9 18.8 71 3.6 SE 35 43 19 23 1011.5 1011.0 0.0
 
Date/Time
EST
Temp
°C
App
Temp
°C
Dew
Point
°C
Rel
Hum
%
Delta-T
°C
Wind Press
QNH
hPa
Press
MSL
hPa
Rain since
9am
mm
Dir  Spd
km/h
Gust
km/h
Spd
kts
Gust
kts
17/11:30pm 24.5 20.2 18.7 70 3.7 SE 39 43 21 23 1011.8 1011.3 0.0
17/11:00pm 24.6 21.1 18.8 70 3.7 SE 35 43 19 23 1012.1 1011.6 0.0
17/10:30pm 24.6 19.8 19.2 72 3.5 SE 43 48 23 26 1012.3 1011.8 0.0
17/10:00pm 24.6 19.6 19.2 72 3.5 SE 44 48 24 26 1012.2 1011.7 0.0
17/09:30pm 24.6 19.8 18.3 68 4.0 SE 41 48 22 26 1012.3 1011.8 0.0
17/09:00pm 24.6 19.8 19.2 72 3.5 SE 43 50 23 27 1012.1 1011.6 0.0
17/08:30pm 24.6 19.6 19.2 72 3.5 SE 44 52 24 28 1011.8 1011.3 0.0
17/08:00pm 24.7 18.9 18.4 68 4.0 ESE 46 54 25 29 1011.6 1011.1 0.0
17/07:30pm 24.7 19.3 19.3 72 3.5 SE 46 54 25 29 1011.4 1010.9 0.0
17/07:00pm 24.6 19.1 19.0 71 3.6 SE 46 54 25 29 1011.0 1010.5 0.0
17/06:30pm 24.7 19.4 19.5 73 3.4 SE 46 54 25 29 1010.8 1010.3 0.0
17/06:00pm 24.8 19.5 18.5 68 4.0 SE 44 54 24 29 1010.5 1010.0 0.0
17/05:30pm 25.1 19.7 19.2 70 3.8 SE 46 54 25 29 1010.4 1009.9 0.0
17/05:00pm 25.2 19.9 18.6 67 4.2 SE 44 52 24 28 1010.4 1009.9 0.0
17/04:30pm 25.7 20.9 19.6 69 4.0 SE 44 50 24 27 1010.5 1010.0 0.0
17/04:00pm 25.8 20.7 18.5 64 4.7 SSE 43 50 23 27 1010.5 1010.0 0.0
17/03:30pm 25.8 20.9 19.0 66 4.4 SSE 43 48 23 26 1010.7 1010.2 0.0
17/03:00pm 26.1 21.3 19.7 68 4.2 SSE 44 50 24 27 1010.8 1010.3 0.0
17/02:30pm 26.6 21.8 18.5 61 5.2 SSE 41 46 22 25 1011.0 1010.5 0.0
17/02:00pm 26.4 22.8 19.3 65 4.6 SSE 37 46 20 25 1011.2 1010.7 0.0
17/01:30pm 25.8 22.1 19.9 70 3.8 SSE 39 44 21 24 1011.8 1011.3 0.0
17/01:00pm 26.2 21.7 19.8 68 4.2 SSE 43 52 23 28 1012.0 1011.5 0.0
17/12:30pm 27.1 23.9 20.2 66 4.5 SSE 37 46 20 25 1012.4 1011.9 0.0
17/12:00pm 26.2 22.7 19.6 67 4.3 SSE 37 44 20 24 1012.7 1012.2 0.0
17/11:30am 25.8 23.3 19.7 69 4.0 SE 32 35 17 19 1013.1 1012.6 0.0
17/11:00am 25.4 21.7 19.1 68 4.0 SSE 37 50 20 27 1013.6 1013.0 0.0
17/10:30am 26.1 22.6 19.7 68 4.2 SE 37 46 20 25 1013.7 1013.1 0.0
17/10:00am 26.0 22.1 19.6 68 4.1 SE 39 46 21 25 1013.9 1013.3 0.0
17/09:30am 25.6 20.4 18.8 66 4.4 SSE 44 54 24 29 1013.7 1013.1 0.0
17/09:00am 25.6 21.4 19.0 67 4.2 SSE 39 48 21 26 1013.7 1013.1 0.0

Latest Capital City Observations: Canberra | Sydney | Melbourne | Brisbane | Adelaide | Perth | Hobart | Darwin

Other formats

Comma delimited format used in spreadsheet applications
http://www.bom.gov.au/fwo/IDQ60901/IDQ60901.94584.axf

JavaScript Object Notation format (JSON) in row-major order
http://www.bom.gov.au/fwo/IDQ60901/IDQ60901.94584.json

Data quality

Most of these data are generated automatically and are frequently updated. Quality checks on data are not normally performed. It is possible for incorrect values to appear. Refer to information at About Latest Weather Observations and please check the disclaimer before using these data.